MUMZ/MZO METAR and TAF weather

Enter ICAO airport designator
Station Type Date Time Source
MUMZ METAR 2020/03/09 05:00 UTC NOAA

MUMZ 090500Z AUTO 05010KT 20/15 Q1022


Station Type Date Time Source
MUMZ Decoded METAR 2020/03/09 05:00 UTC NOAA

Manzanillo, Oriente, Cuba (MUMZ) 20-20N 077-07W 60M
Mar 09, 2020 - 01:00 AM EDT / 2020.03.09 0500 UTC
Wind: from the NE (050 degrees) at 12 MPH (10 KT):0
Temperature: 68 F (20 C)
Dew Point: 59 F (15 C)
Relative Humidity: 72%
Pressure (altimeter): 30.18 in. Hg (1022 hPa)
ob: MUMZ 090500Z AUTO 05010KT 20/15 Q1022
cycle: 5

Station Type Date Time Source
MUMZ TAF 2020/02/05 22:57 UTC NOAA

TAF
AMD MUMZ 052150Z 0522/0618 27009KT 9000 BKN020

Example: see airport list